Time;durP1;ratioP1;P1;durP2;ratioP2;P2;SDS_P1;SDS_P2;PMS_P1;PMS_P2;Temp;Humidity;BMP_temperature;BMP_pressure;BME280_temperature;BME280_humidity;BME280_pressure;Samples;Min_cycle;Max_cycle;Signal;HPM_P1;HPM_P2
2022/09/25 00:01:37;;;;;;;10.43;8.15;;;14.30;99.90;;;;;;4861768;29;20034;-60
2022/09/25 00:04:03;;;;;;;9.25;7.38;;;14.40;99.90;;;;;;4862021;29;20041;-61
2022/09/25 00:06:29;;;;;;;8.32;7.13;;;14.40;99.90;;;;;;4861634;29;20100;-60
2022/09/25 00:08:56;;;;;;;9.32;7.05;;;14.30;99.90;;;;;;4861497;29;20388;-61
2022/09/25 00:11:31;;;;;;;8.30;6.97;;;14.30;99.90;;;;;;4861600;29;20046;-63
2022/09/25 00:13:58;;;;;;;7.00;6.30;;;14.30;99.90;;;;;;4861390;29;20477;-61
2022/09/25 00:16:27;;;;;;;7.45;6.07;;;14.30;99.90;;;;;;4861340;29;20380;-58
2022/09/25 00:21:39;;;;;;;7.95;6.78;;;14.20;99.90;;;;;;4861031;29;20060;-62
2022/09/25 00:24:07;;;;;;;8.65;6.57;;;14.20;99.90;;;;;;4861280;29;20384;-61
2022/09/25 00:26:35;;;;;;;8.90;6.93;;;14.20;99.90;;;;;;4861428;29;20034;-60
2022/09/25 00:29:02;;;;;;;7.10;6.40;;;14.10;99.90;;;;;;4861127;29;20086;-64
2022/09/25 00:31:29;;;;;;;9.65;7.18;;;14.20;99.90;;;;;;4861424;29;20041;-62
2022/09/25 00:33:57;;;;;;;9.90;7.82;;;14.10;99.90;;;;;;4861372;29;20049;-61
2022/09/25 00:36:23;;;;;;;11.52;8.00;;;14.10;99.90;;;;;;4860854;29;20026;-63
2022/09/25 00:38:49;;;;;;;7.93;7.10;;;14.00;99.90;;;;;;4861079;29;20029;-62
2022/09/25 00:41:17;;;;;;;7.45;6.38;;;14.00;99.90;;;;;;4861346;29;20038;-64
2022/09/25 00:43:44;;;;;;;7.80;6.22;;;14.00;99.90;;;;;;4860963;29;20496;-59
2022/09/25 00:46:22;;;;;;;7.80;6.25;;;14.10;99.90;;;;;;4861301;29;20030;-60
2022/09/25 00:49:00;;;;;;;8.50;7.35;;;14.10;99.90;;;;;;4861042;29;20026;-63
2022/09/25 00:51:51;;;;;;;7.85;6.72;;;14.20;99.90;;;;;;4860288;29;20033;-58
2022/09/25 00:54:28;;;;;;;8.77;6.85;;;14.10;99.90;;;;;;4860951;29;20036;-61
2022/09/25 00:56:57;;;;;;;7.50;6.72;;;14.10;99.90;;;;;;4861026;29;20025;-63
2022/09/25 00:59:29;;;;;;;8.23;6.65;;;14.10;99.90;;;;;;4860941;29;20495;-63
2022/09/25 01:01:56;;;;;;;6.45;5.68;;;14.10;99.90;;;;;;4861220;29;20108;-63
2022/09/25 01:04:22;;;;;;;6.60;5.25;;;14.00;99.90;;;;;;4860653;29;20032;-59
2022/09/25 01:06:49;;;;;;;5.82;5.22;;;14.00;99.90;;;;;;4861138;29;20030;-61
2022/09/25 01:09:16;;;;;;;5.75;4.88;;;14.00;99.90;;;;;;4860776;29;20452;-61
2022/09/25 01:11:41;;;;;;;5.40;4.70;;;14.00;99.90;;;;;;4860824;29;20081;-60
2022/09/25 01:14:08;;;;;;;5.65;4.65;;;14.00;99.90;;;;;;4860861;29;20064;-60
2022/09/25 01:16:50;;;;;;;4.57;4.18;;;14.00;99.90;;;;;;4860684;29;20025;-64
2022/09/25 01:19:34;;;;;;;4.60;4.13;;;13.90;99.90;;;;;;4860642;29;20052;-57
2022/09/25 01:22:29;;;;;;;4.97;4.25;;;13.90;99.90;;;;;;4860522;29;20084;-61
2022/09/25 01:25:44;;;;;;;5.22;4.38;;;13.80;99.90;;;;;;4860842;29;20029;-59
2022/09/25 01:28:15;;;;;;;5.30;4.25;;;13.70;99.90;;;;;;4844005;29;20445;-64
2022/09/25 01:30:44;;;;;;;6.30;5.22;;;13.60;99.90;;;;;;4860600;29;20080;-63
2022/09/25 01:33:17;;;;;;;5.95;4.55;;;13.60;99.90;;;;;;4860353;29;20021;-62
2022/09/25 01:35:47;;;;;;;6.38;4.80;;;13.50;99.90;;;;;;4860622;29;20544;-60
2022/09/25 01:38:22;;;;;;;6.32;4.45;;;13.50;99.90;;;;;;4860804;29;20385;-60
2022/09/25 01:41:06;;;;;;;6.07;4.45;;;13.50;99.90;;;;;;4860479;29;20477;-62
2022/09/25 01:43:47;;;;;;;5.10;4.28;;;13.50;99.90;;;;;;4860773;29;20025;-63
2022/09/25 01:46:17;;;;;;;5.03;4.40;;;13.50;99.90;;;;;;4860444;29;20045;-61
2022/09/25 01:48:48;;;;;;;5.97;4.25;;;13.40;99.90;;;;;;4860336;29;20064;-63
2022/09/25 01:51:29;;;;;;;4.68;3.85;;;13.40;99.90;;;;;;4860226;29;20037;-61
2022/09/25 01:54:00;;;;;;;3.75;3.22;;;13.40;99.90;;;;;;4860530;29;20021;-62
2022/09/25 01:56:32;;;;;;;4.07;3.13;;;13.40;99.90;;;;;;4860352;29;20029;-62
2022/09/25 01:59:33;;;;;;;3.90;3.20;;;13.40;99.90;;;;;;4860531;29;20499;-60
2022/09/25 02:02:02;;;;;;;4.22;3.05;;;13.40;99.90;;;;;;4861769;29;20036;-64
2022/09/25 02:04:34;;;;;;;2.83;2.60;;;13.50;99.90;;;;;;4863733;29;20073;-63
2022/09/25 02:07:05;;;;;;;4.95;4.05;;;13.40;99.90;;;;;;4863777;29;20073;-61
2022/09/25 02:09:42;;;;;;;4.97;3.70;;;13.40;99.90;;;;;;4863514;29;20030;-62
2022/09/25 02:12:16;;;;;;;6.20;4.38;;;13.30;99.90;;;;;;4863483;29;20052;-60
2022/09/25 02:14:59;;;;;;;5.28;3.90;;;13.20;99.90;;;;;;4863486;29;20063;-61
2022/09/25 02:20:41;;;;;;;5.88;3.90;;;13.10;99.90;;;;;;4863324;29;20057;-62
2022/09/25 02:23:15;;;;;;;5.97;3.63;;;13.10;99.90;;;;;;4863610;29;20041;-61
2022/09/25 02:25:58;;;;;;;4.30;3.78;;;13.10;99.90;;;;;;4863325;29;20021;-61
2022/09/25 02:28:24;;;;;;;4.28;3.78;;;13.10;99.90;;;;;;4863289;29;20037;-59
2022/09/25 02:30:53;;;;;;;4.32;3.92;;;12.90;99.90;;;;;;4862939;29;20033;-60
2022/09/25 02:33:19;;;;;;;4.75;4.03;;;12.80;99.90;;;;;;4863110;29;20082;-59
2022/09/25 02:35:45;;;;;;;4.93;4.40;;;12.90;99.90;;;;;;4863450;29;20362;-60
2022/09/25 02:38:11;;;;;;;6.60;4.38;;;12.90;99.90;;;;;;4863228;29;20089;-61
2022/09/25 02:41:01;;;;;;;5.75;3.60;;;12.80;99.90;;;;;;4863167;29;20033;-60
2022/09/25 02:43:42;;;;;;;5.38;3.80;;;12.90;99.90;;;;;;4862341;29;20048;-57
2022/09/25 02:46:24;;;;;;;4.18;3.55;;;12.80;99.90;;;;;;4862767;29;20567;-61
2022/09/25 02:49:14;;;;;;;3.33;2.70;;;12.80;99.90;;;;;;4862886;29;20029;-65
2022/09/25 02:52:19;;;;;;;3.65;2.78;;;12.90;99.90;;;;;;4862724;29;20040;-60
2022/09/25 02:55:05;;;;;;;4.40;4.00;;;12.90;99.90;;;;;;4788037;30;20046;-62
2022/09/25 02:57:55;;;;;;;3.65;2.67;;;12.90;99.90;;;;;;4859751;29;20495;-63
2022/09/25 03:00:22;;;;;;;3.35;2.60;;;12.80;99.90;;;;;;4862470;29;20029;-61
2022/09/25 03:02:52;;;;;;;3.08;2.53;;;12.90;99.90;;;;;;4862809;29;20038;-60
2022/09/25 03:05:19;;;;;;;3.13;2.70;;;12.90;99.90;;;;;;4862645;29;20495;-63
2022/09/25 03:10:32;;;;;;;3.83;3.30;;;12.80;99.90;;;;;;4862518;29;20401;-58
2022/09/25 03:13:22;;;;;;;3.70;2.78;;;12.80;99.90;;;;;;4861932;29;20044;-64
2022/09/25 03:15:57;;;;;;;3.28;2.60;;;12.80;99.90;;;;;;4862197;29;20094;-63
2022/09/25 03:18:24;;;;;;;3.25;2.90;;;12.80;99.90;;;;;;4862404;29;20026;-61
2022/09/25 03:20:51;;;;;;;4.40;3.80;;;12.90;99.90;;;;;;4862269;29;20061;-58
2022/09/25 03:23:17;;;;;;;5.50;3.00;;;12.90;99.90;;;;;;4862374;29;20081;-60
2022/09/25 03:25:43;;;;;;;4.30;3.47;;;12.90;99.90;;;;;;4862280;29;20469;-64
2022/09/25 03:28:10;;;;;;;3.00;2.65;;;12.80;99.90;;;;;;4862154;29;20033;-61
2022/09/25 03:30:39;;;;;;;4.55;3.60;;;12.80;99.90;;;;;;4862154;29;20029;-61
2022/09/25 03:33:10;;;;;;;4.03;3.13;;;12.70;99.90;;;;;;4862163;29;20053;-64
2022/09/25 03:35:38;;;;;;;3.10;2.78;;;12.70;99.90;;;;;;4862071;29;20079;-63
2022/09/25 03:38:07;;;;;;;3.53;3.05;;;12.70;99.90;;;;;;4862246;29;20029;-60
2022/09/25 03:40:32;;;;;;;3.97;3.40;;;12.70;99.90;;;;;;4862111;29;20112;-61
2022/09/25 03:42:58;;;;;;;6.28;3.08;;;12.60;99.90;;;;;;4861694;29;20133;-63
2022/09/25 03:45:24;;;;;;;4.32;3.00;;;12.60;99.90;;;;;;4861897;29;20146;-59
2022/09/25 03:47:49;;;;;;;3.72;2.88;;;12.60;99.90;;;;;;4861943;29;20126;-61
2022/09/25 03:50:15;;;;;;;2.83;2.53;;;12.70;99.90;;;;;;4861618;29;20380;-61
2022/09/25 03:52:41;;;;;;;3.08;2.50;;;12.70;99.90;;;;;;4861850;29;20140;-61
2022/09/25 03:55:07;;;;;;;2.80;2.50;;;12.80;99.90;;;;;;4861808;29;20030;-63
2022/09/25 03:57:33;;;;;;;4.80;3.08;;;12.90;99.90;;;;;;4861449;29;20532;-59
2022/09/25 04:00:00;;;;;;;3.75;2.70;;;12.90;99.90;;;;;;4861775;29;20389;-60
2022/09/25 04:02:27;;;;;;;2.83;2.35;;;12.90;99.90;;;;;;4861649;29;20029;-63
2022/09/25 04:04:57;;;;;;;6.18;3.80;;;12.90;99.90;;;;;;4861529;29;20120;-58
2022/09/25 04:07:23;;;;;;;4.40;2.63;;;12.90;99.90;;;;;;4861508;29;20025;-61
2022/09/25 04:09:49;;;;;;;3.55;2.72;;;12.80;99.90;;;;;;4861436;29;20497;-63
2022/09/25 04:12:15;;;;;;;4.78;2.83;;;12.80;99.90;;;;;;4861064;29;20044;-64
2022/09/25 04:14:44;;;;;;;3.55;2.70;;;12.80;99.90;;;;;;4861518;29;20049;-64
2022/09/25 04:17:10;;;;;;;4.93;2.70;;;12.80;99.90;;;;;;4861683;29;20034;-61
2022/09/25 04:19:36;;;;;;;3.33;2.30;;;12.80;99.90;;;;;;4861274;29;20057;-64
2022/09/25 04:22:02;;;;;;;3.30;2.42;;;12.80;99.90;;;;;;4861094;29;20081;-58
2022/09/25 04:27:11;;;;;;;;;;;12.90;99.90;;;;;;4861582;29;20057;-61
2022/09/25 04:29:37;;;;;;;3.85;2.92;;;12.80;99.90;;;;;;4861275;29;20371;-59
2022/09/25 04:34:47;;;;;;;2.67;2.35;;;12.90;99.90;;;;;;4861331;29;20127;-62
2022/09/25 04:37:13;;;;;;;4.43;3.10;;;12.90;99.90;;;;;;4861190;29;20105;-60
2022/09/25 04:39:39;;;;;;;5.07;3.88;;;12.90;99.90;;;;;;4861314;29;20112;-62
2022/09/25 04:42:05;;;;;;;3.15;2.85;;;12.90;99.90;;;;;;4860892;29;20441;-62
2022/09/25 04:44:30;;;;;;;2.90;2.60;;;12.90;99.90;;;;;;4861143;29;20048;-60
2022/09/25 04:46:56;;;;;;;3.70;2.42;;;12.90;99.90;;;;;;4860946;29;20026;-62
2022/09/25 04:49:22;;;;;;;3.05;2.75;;;12.90;99.90;;;;;;4861148;29;20054;-63
2022/09/25 04:51:48;;;;;;;2.47;2.28;;;13.00;99.90;;;;;;4860980;29;20050;-61
2022/09/25 04:54:15;;;;;;;2.47;2.22;;;13.00;99.90;;;;;;4860872;29;20025;-60
2022/09/25 04:56:43;;;;;;;6.78;3.00;;;13.00;99.90;;;;;;4861030;29;20030;-61
2022/09/25 04:59:15;;;;;;;3.08;2.08;;;13.00;99.90;;;;;;4861017;29;20026;-64
2022/09/25 05:01:41;;;;;;;2.35;1.98;;;13.00;99.90;;;;;;4860829;29;20069;-63
2022/09/25 05:04:07;;;;;;;2.40;1.95;;;13.10;99.90;;;;;;4860896;29;20034;-61
2022/09/25 05:06:33;;;;;;;3.28;2.22;;;13.10;99.90;;;;;;4861091;29;20373;-62
2022/09/25 05:08:58;;;;;;;3.10;2.80;;;13.10;99.90;;;;;;4861014;29;20049;-63
2022/09/25 05:11:24;;;;;;;3.75;3.45;;;13.10;99.90;;;;;;4860709;29;20396;-61
2022/09/25 05:13:50;;;;;;;4.63;3.08;;;13.10;99.90;;;;;;4860786;29;20120;-60
2022/09/25 05:16:16;;;;;;;4.28;3.28;;;13.20;99.90;;;;;;4860974;29;20030;-64
2022/09/25 05:18:42;;;;;;;4.22;3.42;;;13.20;99.90;;;;;;4861027;29;20426;-61
2022/09/25 05:21:08;;;;;;;4.18;3.47;;;13.30;99.90;;;;;;4860674;29;20505;-60
2022/09/25 05:23:33;;;;;;;4.32;3.13;;;13.30;99.90;;;;;;4860737;29;20037;-64
2022/09/25 05:26:01;;;;;;;3.20;2.90;;;13.40;99.90;;;;;;4860496;29;20059;-60
2022/09/25 05:28:30;;;;;;;3.15;2.85;;;13.50;99.90;;;;;;4860626;29;20034;-60
2022/09/25 05:31:03;;;;;;;3.28;2.90;;;13.60;99.90;;;;;;4860591;29;20089;-60
2022/09/25 05:33:30;;;;;;;3.38;3.08;;;13.70;99.90;;;;;;4860652;29;20540;-62
2022/09/25 05:36:03;;;;;;;2.70;2.35;;;13.80;99.90;;;;;;4860621;29;20465;-64
2022/09/25 05:38:32;;;;;;;3.53;3.05;;;13.90;99.90;;;;;;4864138;29;20026;-60
2022/09/25 05:41:03;;;;;;;3.10;2.85;;;14.00;99.90;;;;;;4863875;29;20090;-62
2022/09/25 05:43:30;;;;;;;3.30;3.00;;;14.10;99.90;;;;;;4864299;29;20116;-59
2022/09/25 05:45:57;;;;;;;3.58;3.17;;;14.10;99.90;;;;;;4864107;29;20041;-60
2022/09/25 05:48:23;;;;;;;3.30;3.00;;;14.10;99.90;;;;;;4864188;29;20113;-64
2022/09/25 05:50:56;;;;;;;3.42;3.13;;;14.00;99.90;;;;;;4863873;29;20537;-63
2022/09/25 05:53:22;;;;;;;3.57;3.27;;;14.00;99.90;;;;;;4864073;29;20033;-60
2022/09/25 05:55:52;;;;;;;3.15;2.95;;;13.90;99.90;;;;;;4863580;29;20065;-60
2022/09/25 05:58:18;;;;;;;4.25;3.85;;;13.90;99.90;;;;;;4863794;29;20469;-62
2022/09/25 06:00:44;;;;;;;4.20;3.05;;;13.90;99.90;;;;;;4863907;29;20036;-61
2022/09/25 06:03:10;;;;;;;3.58;3.10;;;13.90;99.90;;;;;;4864368;29;20022;-61
2022/09/25 06:05:37;;;;;;;3.30;3.00;;;13.90;99.90;;;;;;4863723;29;20018;-60
2022/09/25 06:08:02;;;;;;;3.63;3.10;;;14.00;99.90;;;;;;4863778;29;20389;-60
2022/09/25 06:10:29;;;;;;;2.88;2.67;;;15.20;99.90;;;;;;4863343;29;20033;-64
2022/09/25 06:12:59;;;;;;;2.88;2.67;;;18.70;97.60;;;;;;4863618;29;20120;-60
2022/09/25 06:15:34;;;;;;;3.03;2.83;;;21.70;78.70;;;;;;4863461;29;20465;-62
2022/09/25 06:18:00;;;;;;;8.13;6.60;;;24.20;65.10;;;;;;4863413;29;20077;-61
2022/09/25 06:20:26;;;;;;;17.42;13.75;;;26.00;55.90;;;;;;4863249;29;20037;-58
2022/09/25 06:22:53;;;;;;;22.33;19.25;;;27.20;52.70;;;;;;4863352;29;20039;-62
2022/09/25 06:25:19;;;;;;;32.97;29.15;;;28.00;50.60;;;;;;4863425;29;20025;-62
2022/09/25 06:27:44;;;;;;;26.67;23.80;;;28.70;48.00;;;;;;4863256;29;20389;-60
2022/09/25 06:30:10;;;;;;;23.17;20.80;;;29.20;46.50;;;;;;4863124;29;20040;-63
2022/09/25 06:32:37;;;;;;;23.50;21.10;;;29.80;46.40;;;;;;4863492;29;20030;-59
2022/09/25 06:35:03;;;;;;;19.65;17.65;;;30.30;45.30;;;;;;4863388;29;20030;-61
2022/09/25 06:37:29;;;;;;;21.25;18.92;;;30.30;43.20;;;;;;4863001;29;20029;-63
2022/09/25 06:39:55;;;;;;;15.15;13.75;;;30.30;43.00;;;;;;4862913;29;20034;-62
2022/09/25 06:42:20;;;;;;;12.13;11.02;;;30.30;41.70;;;;;;4863128;29;20021;-63
2022/09/25 06:44:46;;;;;;;8.00;7.30;;;30.20;41.80;;;;;;4862961;29;20443;-64
2022/09/25 06:47:12;;;;;;;7.53;6.68;;;30.00;41.70;;;;;;4862904;29;20078;-61
2022/09/25 06:49:37;;;;;;;6.25;5.65;;;29.40;42.40;;;;;;4862168;29;20021;-63
2022/09/25 06:52:03;;;;;;;5.35;4.95;;;29.20;42.60;;;;;;4862646;29;20052;-61
2022/09/25 06:54:32;;;;;;;4.20;3.80;;;29.50;42.10;;;;;;4862898;29;20033;-63
2022/09/25 06:56:58;;;;;;;3.90;3.60;;;29.20;42.20;;;;;;4862846;29;20029;-64
2022/09/25 06:59:24;;;;;;;3.67;3.28;;;29.00;42.20;;;;;;4862754;29;20447;-62
2022/09/25 07:01:50;;;;;;;3.45;3.15;;;28.60;42.60;;;;;;4862731;29;20124;-62
2022/09/25 07:04:16;;;;;;;3.35;3.10;;;28.70;43.30;;;;;;4862894;29;20034;-62
2022/09/25 07:06:42;;;;;;;3.05;2.85;;;28.70;42.70;;;;;;4862349;29;20400;-63
2022/09/25 07:09:08;;;;;;;2.90;2.70;;;28.70;44.80;;;;;;4862515;29;20101;-63
2022/09/25 07:11:34;;;;;;;3.22;3.03;;;28.80;44.60;;;;;;4862924;29;20145;-62
2022/09/25 07:14:00;;;;;;;3.60;3.30;;;28.60;43.50;;;;;;4862417;29;20032;-59
2022/09/25 07:16:28;;;;;;;3.65;3.35;;;28.10;44.00;;;;;;4862307;29;20481;-59
2022/09/25 07:18:59;;;;;;;3.88;3.53;;;28.00;45.30;;;;;;4862312;29;20500;-64
2022/09/25 07:21:28;;;;;;;3.33;3.03;;;28.40;45.50;;;;;;4861950;29;20528;-63
2022/09/25 07:23:54;;;;;;;3.55;3.30;;;28.00;44.50;;;;;;4862438;29;20029;-62
2022/09/25 07:26:28;;;;;;;3.17;2.97;;;26.90;46.00;;;;;;4862242;29;20481;-60
2022/09/25 07:29:04;;;;;;;3.05;2.75;;;25.70;47.60;;;;;;4862138;29;20153;-60
2022/09/25 07:31:34;;;;;;;4.38;3.40;;;24.90;48.70;;;;;;4862320;29;20037;-60
2022/09/25 07:34:07;;;;;;;3.50;3.20;;;24.30;50.40;;;;;;4862115;29;20032;-60
2022/09/25 07:36:34;;;;;;;3.25;2.95;;;24.20;51.10;;;;;;4861903;29;20112;-60
2022/09/25 07:38:59;;;;;;;3.42;3.13;;;24.80;50.40;;;;;;4862264;29;20034;-61
2022/09/25 07:41:25;;;;;;;4.13;3.72;;;25.10;49.40;;;;;;4862011;29;20029;-63
2022/09/25 07:43:56;;;;;;;3.95;3.58;;;24.90;49.20;;;;;;4861874;29;20141;-63
2022/09/25 07:46:22;;;;;;;3.78;3.47;;;24.30;49.80;;;;;;4862148;29;20388;-61
2022/09/25 07:48:51;;;;;;;3.35;3.05;;;24.00;51.70;;;;;;4861845;29;20548;-64
2022/09/25 07:51:18;;;;;;;3.63;3.33;;;23.60;52.30;;;;;;4862058;29;20094;-62
2022/09/25 07:53:44;;;;;;;4.15;3.78;;;23.30;52.70;;;;;;4861768;29;20025;-62
2022/09/25 07:56:11;;;;;;;3.78;3.47;;;23.20;52.50;;;;;;4861944;29;20033;-62
2022/09/25 07:58:37;;;;;;;4.75;4.35;;;23.10;52.50;;;;;;4861453;29;20025;-60
2022/09/25 08:01:05;;;;;;;4.75;4.35;;;23.00;52.50;;;;;;4861362;29;20045;-62
2022/09/25 08:03:31;;;;;;;4.78;4.28;;;23.10;53.30;;;;;;4861864;29;20068;-61
2022/09/25 08:06:01;;;;;;;4.45;4.05;;;22.90;54.10;;;;;;4861369;29;20057;-60
2022/09/25 08:08:28;;;;;;;3.60;3.30;;;22.70;53.60;;;;;;4861829;29;20086;-61
2022/09/25 08:11:00;;;;;;;3.25;2.97;;;22.60;51.70;;;;;;4861422;29;20029;-60
2022/09/25 08:13:25;;;;;;;3.85;3.47;;;22.30;53.90;;;;;;4861722;29;20056;-62
2022/09/25 08:15:51;;;;;;;3.42;3.13;;;22.20;52.70;;;;;;4861703;29;20480;-64
2022/09/25 08:18:17;;;;;;;3.45;2.92;;;22.00;55.00;;;;;;4861400;29;20022;-59
2022/09/25 08:20:42;;;;;;;3.08;2.85;;;21.80;54.50;;;;;;4860825;29;20492;-63
2022/09/25 08:23:08;;;;;;;3.30;3.00;;;21.70;55.10;;;;;;4861462;29;20025;-62
2022/09/25 08:25:34;;;;;;;3.40;3.10;;;21.70;56.30;;;;;;4861220;29;20060;-62
2022/09/25 08:28:00;;;;;;;3.28;2.97;;;21.80;55.00;;;;;;4861178;29;20029;-60
2022/09/25 08:30:25;;;;;;;2.88;2.67;;;21.80;54.30;;;;;;4861142;29;20034;-63
2022/09/25 08:32:51;;;;;;;4.05;3.10;;;21.80;55.00;;;;;;4861463;29;20041;-60
2022/09/25 08:35:17;;;;;;;2.95;2.75;;;21.90;56.00;;;;;;4860814;29;20120;-63
2022/09/25 08:37:44;;;;;;;3.95;3.55;;;21.90;55.50;;;;;;4861333;29;20037;-60
2022/09/25 08:40:29;;;;;;;8.07;5.60;;;21.90;56.10;;;;;;4861177;29;20478;-61
2022/09/25 08:42:56;;;;;;;4.85;3.97;;;22.00;57.10;;;;;;4861161;29;20025;-62
2022/09/25 08:51:11;;;;;;;3.20;2.90;;;21.80;56.10;;;;;;4860914;29;20071;-65
2022/09/25 08:53:38;;;;;;;3.65;3.00;;;21.90;56.00;;;;;;4861122;29;20053;-61
2022/09/25 08:56:16;;;;;;;3.17;2.88;;;21.90;56.20;;;;;;4861021;29;20082;-62
2022/09/25 08:59:10;;;;;;;4.63;3.75;;;21.90;56.60;;;;;;4860921;29;20086;-62
2022/09/25 09:01:42;;;;;;;3.53;3.22;;;21.80;56.80;;;;;;4860849;29;20025;-63
2022/09/25 09:04:24;;;;;;;5.68;3.38;;;21.80;57.50;;;;;;4860736;29;20433;-62
2022/09/25 09:06:55;;;;;;;8.57;7.05;;;21.90;58.60;;;;;;4860800;29;20077;-61
2022/09/25 09:09:26;;;;;;;5.72;5.07;;;21.90;58.20;;;;;;4860842;29;20496;-63
2022/09/25 09:12:05;;;;;;;4.78;4.38;;;21.90;57.80;;;;;;4862177;29;20477;-62
2022/09/25 09:14:40;;;;;;;5.25;4.75;;;22.00;57.60;;;;;;4864547;29;20553;-62
2022/09/25 09:17:23;;;;;;;4.70;4.20;;;22.00;57.80;;;;;;4864602;29;20082;-61
2022/09/25 09:19:58;;;;;;;4.03;3.42;;;21.90;56.90;;;;;;4864398;29;20045;-61
2022/09/25 09:22:36;;;;;;;3.72;3.42;;;21.90;58.00;;;;;;4864174;29;20088;-61
2022/09/25 09:25:17;;;;;;;3.75;3.45;;;21.80;57.00;;;;;;4864936;29;20410;-59
2022/09/25 09:28:01;;;;;;;4.82;4.38;;;21.80;59.60;;;;;;4864439;29;20558;-60
2022/09/25 09:30:36;;;;;;;4.70;4.20;;;21.70;57.30;;;;;;4864421;29;20134;-62
2022/09/25 09:33:11;;;;;;;4.70;4.20;;;21.60;58.20;;;;;;4864340;29;20026;-62
2022/09/25 09:36:08;;;;;;;4.00;3.60;;;21.70;58.40;;;;;;4864340;29;20025;-62
2022/09/25 09:38:40;;;;;;;4.90;4.15;;;21.80;60.70;;;;;;4863996;29;20124;-64
2022/09/25 09:41:29;;;;;;;3.83;3.50;;;21.90;59.70;;;;;;4864372;29;20425;-64
2022/09/25 09:44:13;;;;;;;3.63;3.22;;;22.00;61.30;;;;;;4864020;29;20037;-61
2022/09/25 09:47:17;;;;;;;3.80;3.50;;;22.10;57.50;;;;;;4864077;29;20025;-63
2022/09/25 09:49:49;;;;;;;5.07;3.33;;;22.10;57.50;;;;;;4834591;29;20396;-61
2022/09/25 09:52:22;;;;;;;3.60;2.40;;;22.10;59.40;;;;;;4863873;29;20084;-62
2022/09/25 09:54:58;;;;;;;2.50;2.30;;;22.10;58.00;;;;;;4864310;29;20025;-61
2022/09/25 09:57:29;;;;;;;2.25;2.05;;;22.10;59.60;;;;;;4864024;29;20034;-60
2022/09/25 10:00:02;;;;;;;2.50;1.80;;;22.30;59.10;;;;;;4863743;29;20030;-60
2022/09/25 10:02:56;;;;;;;2.28;2.08;;;22.30;58.40;;;;;;4863565;29;20065;-62
2022/09/25 10:05:32;;;;;;;2.47;2.28;;;22.40;59.50;;;;;;4863950;29;20061;-61
2022/09/25 10:07:58;;;;;;;4.30;2.45;;;22.40;57.80;;;;;;4863618;29;20104;-64
2022/09/25 10:10:34;;;;;;;2.40;2.10;;;22.30;56.60;;;;;;4863415;29;20460;-63
2022/09/25 10:13:05;;;;;;;3.35;2.60;;;22.40;58.10;;;;;;4863835;29;20100;-61
2022/09/25 10:15:37;;;;;;;2.70;2.50;;;22.50;59.70;;;;;;4863323;29;20048;-61
2022/09/25 10:18:03;;;;;;;2.60;2.40;;;22.60;58.50;;;;;;4863424;29;20030;-60
2022/09/25 10:20:46;;;;;;;3.08;2.80;;;22.80;57.80;;;;;;4863255;29;20451;-64
2022/09/25 10:23:26;;;;;;;4.40;4.00;;;22.70;58.90;;;;;;4863190;29;20393;-63
2022/09/25 10:25:52;;;;;;;5.30;4.18;;;22.60;57.30;;;;;;4863494;29;20029;-63
2022/09/25 10:28:34;;;;;;;4.13;3.70;;;22.50;57.60;;;;;;4863222;29;20033;-63
2022/09/25 10:31:04;;;;;;;4.15;3.75;;;22.40;58.20;;;;;;4862938;29;20033;-60
2022/09/25 10:33:32;;;;;;;6.45;4.05;;;22.30;58.50;;;;;;4863163;29;20033;-61
2022/09/25 10:35:58;;;;;;;4.20;3.80;;;22.30;58.90;;;;;;4863142;29;20037;-63
2022/09/25 10:38:47;;;;;;;6.78;4.70;;;22.30;61.00;;;;;;4862964;29;20025;-63
2022/09/25 10:41:18;;;;;;;4.07;3.67;;;22.20;59.60;;;;;;4862987;29;20481;-61
2022/09/25 10:43:52;;;;;;;4.47;3.97;;;22.30;61.80;;;;;;4863191;29;20037;-59
2022/09/25 10:52:27;;;;;;;6.18;4.68;;;22.60;57.50;;;;;;4862930;29;20060;-61
2022/09/25 10:55:13;;;;;;;5.80;5.30;;;22.60;60.20;;;;;;4862912;29;20461;-63
2022/09/25 10:57:41;;;;;;;5.65;5.15;;;22.70;61.80;;;;;;4862803;29;20046;-61
2022/09/25 11:00:25;;;;;;;6.30;4.97;;;22.70;59.90;;;;;;4846213;29;20370;-62
2022/09/25 11:03:04;;;;;;;7.38;5.13;;;22.70;58.60;;;;;;4862944;29;20037;-60
2022/09/25 11:05:32;;;;;;;6.82;5.82;;;22.80;62.80;;;;;;4862602;29;20044;-61
2022/09/25 11:08:01;;;;;;;6.53;5.38;;;23.10;60.30;;;;;;4862478;29;20036;-60
2022/09/25 11:10:42;;;;;;;5.60;4.82;;;23.30;59.40;;;;;;4862452;29;20033;-60
2022/09/25 11:13:25;;;;;;;5.03;3.63;;;23.40;58.20;;;;;;4862274;29;20030;-61
2022/09/25 11:15:55;;;;;;;3.47;3.17;;;23.40;55.80;;;;;;4862336;29;20074;-61
2022/09/25 11:18:36;;;;;;;4.15;3.55;;;23.40;55.80;;;;;;4862296;29;20083;-63
2022/09/25 11:21:04;;;;;;;3.45;3.15;;;23.50;57.50;;;;;;4862370;29;20053;-64
2022/09/25 11:24:03;;;;;;;3.67;3.38;;;23.70;56.40;;;;;;4862406;29;20033;-62
2022/09/25 11:26:38;;;;;;;3.78;3.47;;;23.90;55.10;;;;;;4849089;29;20037;-61
2022/09/25 11:29:53;;;;;;;4.30;3.90;;;24.00;56.80;;;;;;4861935;29;20021;-62
2022/09/25 11:32:23;;;;;;;4.10;3.70;;;24.00;54.80;;;;;;4862390;29;20049;-60
2022/09/25 11:34:59;;;;;;;3.78;3.20;;;24.00;54.90;;;;;;4861458;29;20026;-64
2022/09/25 11:37:59;;;;;;;3.22;2.92;;;24.10;58.40;;;;;;4861939;29;20025;-65
2022/09/25 11:43:54;;;;;;;2.57;2.37;;;24.10;56.10;;;;;;4861864;29;20120;-63
2022/09/25 11:46:36;;;;;;;2.58;2.38;;;24.00;54.50;;;;;;4828779;29;20493;-60
2022/09/25 11:49:24;;;;;;;2.85;1.95;;;23.70;54.40;;;;;;4861780;29;20029;-61
2022/09/25 11:52:10;;;;;;;2.40;2.00;;;23.70;55.00;;;;;;4861863;29;20030;-61
2022/09/25 11:54:53;;;;;;;2.70;2.40;;;23.70;56.70;;;;;;4861799;29;20495;-64
2022/09/25 11:57:30;;;;;;;;;;;23.60;58.10;;;;;;4861904;29;20548;-63
2022/09/25 12:00:19;;;;;;;3.30;2.50;;;23.60;57.30;;;;;;4861716;29;19915;-60
2022/09/25 12:03:22;;;;;;;2.70;2.38;;;23.50;55.70;;;;;;4861609;29;20125;-62
2022/09/25 12:06:04;;;;;;;3.72;2.67;;;23.50;57.30;;;;;;4861794;29;20038;-63
2022/09/25 12:08:35;;;;;;;3.05;2.75;;;23.50;56.50;;;;;;4861551;29;20536;-60
2022/09/25 12:11:12;;;;;;;2.47;2.28;;;23.30;57.00;;;;;;4861424;29;20041;-64
2022/09/25 12:13:55;;;;;;;2.88;2.58;;;23.30;61.40;;;;;;4861554;29;20090;-59
2022/09/25 12:16:37;;;;;;;4.13;2.88;;;23.30;58.50;;;;;;4861655;29;20030;-63
2022/09/25 12:19:15;;;;;;;3.30;2.45;;;23.10;57.50;;;;;;4861358;29;20500;-63
2022/09/25 12:22:00;;;;;;;2.88;2.15;;;23.10;59.20;;;;;;4861092;29;20121;-61
2022/09/25 12:25:00;;;;;;;2.22;2.00;;;23.00;57.30;;;;;;4861334;29;20029;-61
2022/09/25 12:27:34;;;;;;;2.15;1.90;;;22.70;57.40;;;;;;4857337;29;20037;-63
2022/09/25 12:30:15;;;;;;;2.70;2.33;;;22.60;57.90;;;;;;4861143;29;20067;-64
2022/09/25 12:33:07;;;;;;;2.60;2.40;;;22.60;59.10;;;;;;4861412;29;20028;-63
2022/09/25 12:35:58;;;;;;;4.65;2.50;;;22.60;62.40;;;;;;4861449;29;20022;-63
2022/09/25 12:38:51;;;;;;;4.55;3.55;;;22.60;58.60;;;;;;4828122;29;20393;-63
2022/09/25 12:41:34;;;;;;;4.13;3.65;;;22.60;59.20;;;;;;4861017;29;20397;-63
2022/09/25 12:44:10;;;;;;;4.78;4.28;;;22.70;58.80;;;;;;4861194;29;20033;-61
2022/09/25 12:47:32;;;;;;;6.20;4.72;;;22.70;60.60;;;;;;4860992;29;20026;-63
2022/09/25 12:50:01;;;;;;;4.38;3.97;;;22.70;59.30;;;;;;4820924;29;20046;-62
2022/09/25 12:52:43;;;;;;;5.88;5.28;;;22.70;64.20;;;;;;4861266;29;20389;-62
2022/09/25 12:55:15;;;;;;;5.18;4.78;;;22.70;70.30;;;;;;4860695;29;20030;-62
2022/09/25 12:57:47;;;;;;;5.00;4.60;;;22.60;75.20;;;;;;4861215;29;20044;-61
2022/09/25 13:00:22;;;;;;;7.15;6.53;;;22.50;80.50;;;;;;4861029;29;20079;-61
2022/09/25 13:03:16;;;;;;;10.18;9.38;;;22.20;82.90;;;;;;4860692;29;20036;-60
2022/09/25 13:06:02;;;;;;;10.80;9.90;;;22.10;86.20;;;;;;4860864;29;20032;-61
2022/09/25 13:08:43;;;;;;;16.52;15.07;;;22.20;93.00;;;;;;4860831;29;20057;-61
2022/09/25 13:11:14;;;;;;;16.30;14.90;;;22.10;95.20;;;;;;4860792;29;20037;-61
2022/09/25 13:13:45;;;;;;;15.98;14.68;;;22.10;94.70;;;;;;4860945;29;20044;-62
2022/09/25 13:16:14;;;;;;;14.88;13.63;;;22.30;92.90;;;;;;4860714;29;20077;-61
2022/09/25 13:18:47;;;;;;;14.00;12.80;;;22.50;92.50;;;;;;4861239;29;20029;-61
2022/09/25 13:21:30;;;;;;;12.23;11.23;;;22.80;92.00;;;;;;4860489;29;20053;-61
2022/09/25 13:23:58;;;;;;;9.55;8.65;;;22.90;89.60;;;;;;4860701;29;20489;-63
2022/09/25 13:26:29;;;;;;;9.23;8.43;;;23.10;83.70;;;;;;4860952;29;20033;-62
2022/09/25 13:29:01;;;;;;;9.30;8.40;;;23.20;82.50;;;;;;4860617;29;20069;-64
2022/09/25 13:31:33;;;;;;;7.30;6.60;;;23.20;75.00;;;;;;4860657;29;20030;-63
2022/09/25 13:34:13;;;;;;;6.80;6.10;;;23.20;77.00;;;;;;4860573;29;20358;-64
2022/09/25 13:36:46;;;;;;;9.77;8.90;;;23.20;76.60;;;;;;4860922;29;20062;-63
2022/09/25 13:42:36;;;;;;;18.48;16.90;;;23.00;79.70;;;;;;4860915;29;20040;-63
2022/09/25 13:45:21;;;;;;;11.45;10.45;;;22.80;89.60;;;;;;4860797;29;20026;-60
2022/09/25 13:47:53;;;;;;;10.15;9.20;;;22.50;95.10;;;;;;4860671;29;20049;-61